createdAt,value
2018-01-15T00:00:21.122Z,-3.30
2018-01-15T00:01:23.608Z,-3.30
2018-01-15T00:02:26.066Z,-3.30
2018-01-15T00:03:28.586Z,-3.20
2018-01-15T00:04:31.070Z,-3.20
2018-01-15T00:05:34.610Z,-3.20
2018-01-15T00:06:37.837Z,-3.20
2018-01-15T00:07:41.086Z,-3.20
2018-01-15T00:08:44.337Z,-3.20
2018-01-15T00:09:47.569Z,-3.20
2018-01-15T00:10:50.839Z,-3.20
2018-01-15T00:11:54.057Z,-3.20
2018-01-15T00:12:57.309Z,-3.10
2018-01-15T00:14:00.556Z,-3.10
2018-01-15T00:15:03.779Z,-3.10
2018-01-15T00:16:06.286Z,-3.10
2018-01-15T00:17:08.750Z,-3.00
2018-01-15T00:18:11.981Z,-3.00
2018-01-15T00:19:15.201Z,-3.00
2018-01-15T00:20:17.683Z,-3.00
2018-01-15T00:21:20.177Z,-3.00
2018-01-15T00:22:23.423Z,-2.90
2018-01-15T00:23:26.650Z,-2.90
2018-01-15T00:24:29.925Z,-2.90
2018-01-15T00:25:32.386Z,-2.90
2018-01-15T00:26:34.901Z,-2.90
2018-01-15T00:27:38.141Z,-3.00
2018-01-15T00:28:40.602Z,-3.00
2018-01-15T00:29:43.161Z,-3.00
2018-01-15T00:30:46.412Z,-2.90
2018-01-15T00:31:48.862Z,-2.90
2018-01-15T00:32:51.456Z,-2.90
2018-01-15T00:33:54.762Z,-2.90
2018-01-15T00:34:57.246Z,-2.90
2018-01-15T00:35:59.714Z,-2.90
2018-01-15T00:37:03.082Z,-2.80
2018-01-15T00:38:06.321Z,-2.80
2018-01-15T00:39:08.791Z,-2.80
2018-01-15T00:40:11.253Z,-2.90
2018-01-15T00:41:13.716Z,-2.90
2018-01-15T00:42:16.207Z,-2.90
2018-01-15T00:43:19.440Z,-2.80
2018-01-15T00:44:21.918Z,-2.80
2018-01-15T00:45:24.390Z,-2.80
2018-01-15T00:46:27.669Z,-2.80
2018-01-15T00:47:30.244Z,-2.80
2018-01-15T00:48:32.702Z,-2.80
2018-01-15T00:49:35.986Z,-2.80
2018-01-15T00:50:39.222Z,-2.80
2018-01-15T00:51:41.730Z,-2.80
2018-01-15T00:52:44.199Z,-2.80
2018-01-15T00:53:46.665Z,-2.80
2018-01-15T00:54:49.916Z,-2.80
2018-01-15T00:55:53.146Z,-2.80
2018-01-15T00:56:56.410Z,-2.80
2018-01-15T00:57:58.950Z,-2.80
2018-01-15T00:59:01.461Z,-2.80
2018-01-15T01:00:03.979Z,-2.80
2018-01-15T01:01:06.437Z,-2.90
2018-01-15T01:02:09.687Z,-2.90
2018-01-15T01:03:12.152Z,-2.90
2018-01-15T01:04:15.381Z,-2.90
2018-01-15T01:05:17.909Z,-2.90
2018-01-15T01:06:21.171Z,-2.80
2018-01-15T01:07:24.430Z,-2.80
2018-01-15T01:08:26.962Z,-2.80
2018-01-15T01:09:29.586Z,-2.80
2018-01-15T01:10:32.067Z,-2.80
2018-01-15T01:11:34.533Z,-2.80
2018-01-15T01:12:37.009Z,-2.70
2018-01-15T01:13:39.483Z,-2.70
2018-01-15T01:14:41.973Z,-2.70
2018-01-15T01:15:44.434Z,-2.70
2018-01-15T01:16:46.901Z,-2.80
2018-01-15T01:17:49.958Z,-2.80
2018-01-15T01:18:53.197Z,-2.80
2018-01-15T01:19:55.757Z,-2.80
2018-01-15T01:20:58.995Z,-2.80
2018-01-15T01:22:02.222Z,-2.80
2018-01-15T01:23:04.692Z,-2.80
2018-01-15T01:24:07.162Z,-2.80
2018-01-15T01:25:10.418Z,-2.80
2018-01-15T01:26:13.641Z,-2.80
2018-01-15T01:27:16.881Z,-2.80
2018-01-15T01:28:19.445Z,-2.80
2018-01-15T01:29:21.922Z,-2.80
2018-01-15T01:30:24.398Z,-2.80
2018-01-15T01:31:26.873Z,-2.80
2018-01-15T01:32:29.339Z,-2.90
2018-01-15T01:33:32.601Z,-2.90
2018-01-15T01:34:35.066Z,-2.90
2018-01-15T01:35:37.641Z,-2.90
2018-01-15T01:36:40.112Z,-2.90
2018-01-15T01:37:42.573Z,-2.90
2018-01-15T01:38:45.815Z,-2.90
2018-01-15T01:39:49.062Z,-2.80
2018-01-15T01:40:52.294Z,-2.80
2018-01-15T01:41:55.526Z,-2.80
2018-01-15T01:42:58.786Z,-2.80
2018-01-15T01:44:02.039Z,-2.80
2018-01-15T01:45:05.276Z,-2.80
2018-01-15T01:46:08.493Z,-2.80
2018-01-15T01:47:10.987Z,-2.80
2018-01-15T01:48:13.481Z,-2.90
2018-01-15T01:49:15.950Z,-2.90
2018-01-15T01:50:18.414Z,-2.90
2018-01-15T01:51:21.703Z,-2.90
2018-01-15T01:52:24.159Z,-2.90
2018-01-15T01:53:27.442Z,-2.90
2018-01-15T01:54:29.913Z,-2.90
2018-01-15T01:55:32.371Z,-2.90
2018-01-15T01:56:35.606Z,-2.90
2018-01-15T01:57:38.866Z,-2.80
2018-01-15T01:58:42.110Z,-2.80
2018-01-15T01:59:45.334Z,-2.80
2018-01-15T02:00:47.954Z,-2.80
2018-01-15T02:01:51.209Z,-2.80
2018-01-15T02:02:54.471Z,-2.80
2018-01-15T02:03:58.109Z,-2.80
2018-01-15T02:05:01.329Z,-2.80
2018-01-15T02:06:03.843Z,-2.80
2018-01-15T02:07:06.302Z,-2.70
2018-01-15T02:08:09.529Z,-2.80
2018-01-15T02:09:11.986Z,-2.80
2018-01-15T02:10:14.462Z,-2.80
2018-01-15T02:11:17.718Z,-2.80
2018-01-15T02:12:20.966Z,-2.80
2018-01-15T02:13:24.188Z,-2.80
2018-01-15T02:14:26.657Z,-2.80
2018-01-15T02:15:29.910Z,-2.80
2018-01-15T02:16:32.402Z,-2.80
2018-01-15T02:17:35.659Z,-2.80
2018-01-15T02:18:38.904Z,-2.80
2018-01-15T02:19:42.147Z,-2.80
2018-01-15T02:20:45.384Z,-2.80
2018-01-15T02:21:48.615Z,-2.80
2018-01-15T02:22:51.885Z,-2.70
2018-01-15T02:23:54.399Z,-2.80
2018-01-15T02:24:56.930Z,-2.70
2018-01-15T02:26:00.160Z,-2.70
2018-01-15T02:27:03.572Z,-2.70
2018-01-15T02:28:06.066Z,-2.70
2018-01-15T02:29:08.530Z,-2.70
2018-01-15T02:30:12.517Z,-2.70
2018-01-15T02:31:15.764Z,-2.70
2018-01-15T02:32:18.222Z,-2.70
2018-01-15T02:33:20.717Z,-2.70
2018-01-15T02:34:23.938Z,-2.60
2018-01-15T02:35:27.194Z,-2.60
2018-01-15T02:36:30.440Z,-2.60
2018-01-15T02:37:33.691Z,-2.60
2018-01-15T02:38:36.198Z,-2.70
2018-01-15T02:39:39.451Z,-2.60
2018-01-15T02:40:42.679Z,-2.50
2018-01-15T02:41:45.922Z,-2.50
2018-01-15T02:42:49.148Z,-2.50
2018-01-15T02:43:53.034Z,-2.60
2018-01-15T02:44:56.259Z,-2.60
2018-01-15T02:45:59.514Z,-2.60
2018-01-15T02:47:02.747Z,-2.60
2018-01-15T02:48:05.978Z,-2.60
2018-01-15T02:49:09.261Z,-2.60
2018-01-15T02:50:11.721Z,-2.60
2018-01-15T02:51:14.199Z,-2.60
2018-01-15T02:52:16.658Z,-2.60
2018-01-15T02:53:19.119Z,-2.60
2018-01-15T02:54:23.669Z,-2.50
2018-01-15T02:55:26.125Z,-2.60
2018-01-15T02:56:29.353Z,-2.50
2018-01-15T02:57:32.642Z,-2.50
2018-01-15T02:58:35.205Z,-2.50
2018-01-15T02:59:37.683Z,-2.50
2018-01-15T03:00:40.157Z,-2.40
2018-01-15T03:01:42.681Z,-2.40
2018-01-15T03:02:45.154Z,-2.40
2018-01-15T03:03:47.682Z,-2.40
2018-01-15T03:04:50.186Z,-2.40
2018-01-15T03:05:53.456Z,-2.40
2018-01-15T03:06:55.937Z,-2.40
2018-01-15T03:07:58.395Z,-2.40
2018-01-15T03:09:01.645Z,-2.40
2018-01-15T03:10:04.125Z,-2.40
2018-01-15T03:11:06.594Z,-2.30
2018-01-15T03:12:09.054Z,-2.30
2018-01-15T03:13:11.517Z,-2.30
2018-01-15T03:14:14.001Z,-2.30
2018-01-15T03:15:16.901Z,-2.20
2018-01-15T03:16:20.139Z,-2.20
2018-01-15T03:17:22.782Z,-2.20
2018-01-15T03:18:25.254Z,-2.20
2018-01-15T03:19:27.724Z,-2.10
2018-01-15T03:20:30.340Z,-2.10
2018-01-15T03:21:33.599Z,-2.00
2018-01-15T03:22:36.073Z,-2.10
2018-01-15T03:23:38.541Z,-2.10
2018-01-15T03:24:41.084Z,-2.10
2018-01-15T03:25:43.640Z,-2.10
2018-01-15T03:26:46.216Z,-2.10
2018-01-15T03:27:49.546Z,-2.00
2018-01-15T03:28:52.810Z,-2.00
2018-01-15T03:29:55.292Z,-2.00
2018-01-15T03:30:58.530Z,-2.00
2018-01-15T03:32:00.999Z,-2.00
2018-01-15T03:33:03.478Z,-2.00
2018-01-15T03:34:06.154Z,-2.00
2018-01-15T03:35:08.690Z,-2.00
2018-01-15T03:36:11.196Z,-2.00
2018-01-15T03:37:14.462Z,-2.00
2018-01-15T03:38:16.930Z,-2.00
2018-01-15T03:39:19.402Z,-2.00
2018-01-15T03:40:21.881Z,-2.00
2018-01-15T03:41:25.134Z,-1.90
2018-01-15T03:42:28.515Z,-1.90
2018-01-15T03:43:31.730Z,-1.90
2018-01-15T03:44:34.949Z,-2.00
2018-01-15T03:45:38.949Z,-2.00
2018-01-15T03:46:41.449Z,-2.00
2018-01-15T03:47:44.006Z,-2.00
2018-01-15T03:48:46.465Z,-2.00
2018-01-15T03:49:48.929Z,-2.00
2018-01-15T03:50:52.156Z,-2.00
2018-01-15T03:51:54.641Z,-2.00
2018-01-15T03:52:57.102Z,-2.00
2018-01-15T03:53:59.575Z,-2.00
2018-01-15T03:55:02.078Z,-2.00
2018-01-15T03:56:05.338Z,-2.00
2018-01-15T03:57:08.582Z,-1.90
2018-01-15T03:58:11.617Z,-1.90
2018-01-15T03:59:14.077Z,-1.90
2018-01-15T04:00:16.598Z,-1.90
2018-01-15T04:01:19.081Z,-1.90
2018-01-15T04:02:22.316Z,-2.00
2018-01-15T04:03:25.538Z,-1.90
2018-01-15T04:04:28.810Z,-1.90
2018-01-15T04:05:32.070Z,-1.90
2018-01-15T04:06:34.549Z,-1.90
2018-01-15T04:07:37.007Z,-1.90
2018-01-15T04:08:39.482Z,-1.90
2018-01-15T04:09:41.933Z,-1.90
2018-01-15T04:10:45.161Z,-1.90
2018-01-15T04:11:48.446Z,-1.90
2018-01-15T04:12:50.929Z,-1.90
2018-01-15T04:13:54.182Z,-1.90
2018-01-15T04:14:56.680Z,-1.90
2018-01-15T04:15:59.192Z,-1.90
2018-01-15T04:17:01.782Z,-1.90
2018-01-15T04:18:05.078Z,-1.90
2018-01-15T04:19:07.616Z,-1.90
2018-01-15T04:20:10.082Z,-1.90
2018-01-15T04:21:13.314Z,-1.90
2018-01-15T04:22:16.583Z,-1.90
2018-01-15T04:23:19.074Z,-1.90
2018-01-15T04:24:22.339Z,-1.90
2018-01-15T04:25:25.612Z,-1.90
2018-01-15T04:26:28.111Z,-1.90
2018-01-15T04:27:31.396Z,-1.80
2018-01-15T04:28:33.872Z,-1.80
2018-01-15T04:29:37.118Z,-1.80
2018-01-15T04:30:39.630Z,-1.90
2018-01-15T04:31:42.877Z,-1.80
2018-01-15T04:32:46.137Z,-1.80
2018-01-15T04:33:48.923Z,-1.80
2018-01-15T04:34:51.402Z,-1.80
2018-01-15T04:35:53.873Z,-1.80
2018-01-15T04:36:57.846Z,-1.80
2018-01-15T04:38:01.673Z,-1.80
2018-01-15T04:39:04.213Z,-1.80
2018-01-15T04:40:06.701Z,-1.80
2018-01-15T04:41:09.207Z,-1.80
2018-01-15T04:42:12.331Z,-1.80
2018-01-15T04:43:16.301Z,-1.80
2018-01-15T04:44:19.697Z,-1.80
2018-01-15T04:45:22.149Z,-1.80
2018-01-15T04:46:25.402Z,-1.80
2018-01-15T04:47:28.653Z,-1.80
2018-01-15T04:48:31.175Z,-1.80
2018-01-15T04:49:33.683Z,-1.80
2018-01-15T04:50:36.961Z,-1.80
2018-01-15T04:51:39.518Z,-1.80
2018-01-15T04:52:41.978Z,-1.70
2018-01-15T04:53:45.210Z,-1.70
2018-01-15T04:54:47.678Z,-1.80
2018-01-15T04:55:50.301Z,-1.80
2018-01-15T04:56:52.764Z,-1.80
2018-01-15T04:57:55.240Z,-1.80
2018-01-15T04:58:58.465Z,-1.70
2018-01-15T05:00:01.696Z,-1.70
2018-01-15T05:01:04.209Z,-1.70
2018-01-15T05:02:06.686Z,-1.70
2018-01-15T05:03:09.142Z,-1.70
2018-01-15T05:04:11.601Z,-1.70
2018-01-15T05:05:14.835Z,-1.70
2018-01-15T05:06:18.115Z,-1.70
2018-01-15T05:07:20.606Z,-1.70
2018-01-15T05:08:23.175Z,-1.70
2018-01-15T05:09:25.639Z,-1.70
2018-01-15T05:10:28.161Z,-1.60
2018-01-15T05:11:30.615Z,-1.60
2018-01-15T05:12:33.847Z,-1.60
2018-01-15T05:13:36.476Z,-1.70
2018-01-15T05:14:38.942Z,-1.60
2018-01-15T05:15:41.477Z,-1.60
2018-01-15T05:16:43.949Z,-1.60
2018-01-15T05:17:47.866Z,-1.70
2018-01-15T05:18:50.334Z,-1.70
2018-01-15T05:19:54.720Z,-1.70
2018-01-15T05:20:58.050Z,-1.70
2018-01-15T05:22:00.507Z,-1.70
2018-01-15T05:23:02.988Z,-1.70
2018-01-15T05:24:05.450Z,-1.70
2018-01-15T05:25:07.926Z,-1.70
2018-01-15T05:26:10.439Z,-1.70
2018-01-15T05:27:12.904Z,-1.70
2018-01-15T05:28:15.357Z,-1.70
2018-01-15T05:29:17.818Z,-1.70
2018-01-15T05:30:20.278Z,-1.60
2018-01-15T05:31:23.541Z,-1.60
2018-01-15T05:32:26.013Z,-1.70
2018-01-15T05:33:28.512Z,-1.60
2018-01-15T05:34:31.116Z,-1.60
2018-01-15T05:35:34.466Z,-1.60
2018-01-15T05:36:36.972Z,-1.60
2018-01-15T05:37:39.462Z,-1.60
2018-01-15T05:38:41.931Z,-1.60
2018-01-15T05:39:45.392Z,-1.60
2018-01-15T05:40:47.934Z,-1.60
2018-01-15T05:41:51.219Z,-1.60
2018-01-15T05:42:53.687Z,-1.60
2018-01-15T05:43:56.153Z,-1.60
2018-01-15T05:44:58.601Z,-1.60
2018-01-15T05:46:01.071Z,-1.60
2018-01-15T05:47:03.577Z,-1.60
2018-01-15T05:48:06.822Z,-1.60
2018-01-15T05:49:09.318Z,-1.60
2018-01-15T05:50:11.870Z,-1.50
2018-01-15T05:51:15.103Z,-1.50
2018-01-15T05:52:18.356Z,-1.50
2018-01-15T05:53:21.598Z,-1.50
2018-01-15T05:54:24.841Z,-1.50
2018-01-15T05:55:27.321Z,-1.60
2018-01-15T05:56:29.779Z,-1.60
2018-01-15T05:57:33.084Z,-1.60
2018-01-15T05:58:35.547Z,-1.60
2018-01-15T05:59:38.902Z,-1.60
2018-01-15T06:00:42.139Z,-1.60
2018-01-15T06:01:45.375Z,-1.60
2018-01-15T06:02:48.629Z,-1.60
2018-01-15T06:03:51.972Z,-1.60
2018-01-15T06:04:54.454Z,-1.60
2018-01-15T06:05:56.922Z,-1.50
2018-01-15T06:06:59.437Z,-1.60
2018-01-15T06:08:01.860Z,-1.50
2018-01-15T06:09:04.373Z,-1.50
2018-01-15T06:10:07.621Z,-1.50
2018-01-15T06:11:10.089Z,-1.60
2018-01-15T06:12:12.586Z,-1.50
2018-01-15T06:13:15.839Z,-1.50
2018-01-15T06:14:19.117Z,-1.50
2018-01-15T06:15:21.591Z,-1.50
2018-01-15T06:16:24.850Z,-1.50
2018-01-15T06:17:27.333Z,-1.60
2018-01-15T06:18:29.840Z,-1.50
2018-01-15T06:19:32.420Z,-1.50
2018-01-15T06:20:35.680Z,-1.50
2018-01-15T06:21:38.168Z,-1.60
2018-01-15T06:22:40.630Z,-1.50
2018-01-15T06:23:43.146Z,-1.50
2018-01-15T06:24:45.634Z,-1.60
2018-01-15T06:25:48.114Z,-1.60
2018-01-15T06:26:50.626Z,-1.60
2018-01-15T06:27:53.089Z,-1.60
2018-01-15T06:28:55.568Z,-1.60
2018-01-15T06:29:58.089Z,-1.60
2018-01-15T06:31:01.327Z,-1.50
2018-01-15T06:32:04.550Z,-1.50
2018-01-15T06:33:07.916Z,-1.60
2018-01-15T06:34:11.190Z,-1.50
2018-01-15T06:35:13.667Z,-1.60
2018-01-15T06:36:16.931Z,-1.50
2018-01-15T06:37:19.399Z,-1.50
2018-01-15T06:38:21.861Z,-1.50
2018-01-15T06:39:25.109Z,-1.60
2018-01-15T06:40:28.418Z,-1.60
2018-01-15T06:41:30.890Z,-1.70
2018-01-15T06:42:34.318Z,-1.70
2018-01-15T06:43:36.872Z,-1.70
2018-01-15T06:44:40.117Z,-1.80
2018-01-15T06:45:42.569Z,-1.80
2018-01-15T06:46:45.057Z,-1.80
2018-01-15T06:47:47.524Z,-1.80
2018-01-15T06:48:49.982Z,-1.90
2018-01-15T06:49:53.207Z,-1.90
2018-01-15T06:50:55.689Z,-1.90
2018-01-15T06:51:58.200Z,-1.90
2018-01-15T06:53:00.657Z,-1.90
2018-01-15T06:54:03.137Z,-2.00
2018-01-15T06:55:06.447Z,-2.00
2018-01-15T06:56:08.930Z,-2.00
2018-01-15T06:57:11.662Z,-2.00
2018-01-15T06:58:14.162Z,-2.10
2018-01-15T06:59:17.405Z,-2.10
2018-01-15T07:00:21.413Z,-2.10
2018-01-15T07:01:23.873Z,-2.10
2018-01-15T07:02:26.417Z,-2.10
2018-01-15T07:03:29.679Z,-2.10
2018-01-15T07:04:32.946Z,-2.10
2018-01-15T07:05:35.430Z,-2.10
2018-01-15T07:06:38.706Z,-2.20
2018-01-15T07:07:41.189Z,-2.10
2018-01-15T07:08:44.422Z,-2.20
2018-01-15T07:09:47.653Z,-2.20
2018-01-15T07:10:51.644Z,-2.20
2018-01-15T07:11:54.890Z,-2.20
2018-01-15T07:12:57.704Z,-2.20
2018-01-15T07:14:00.962Z,-2.20
2018-01-15T07:15:04.194Z,-2.20
2018-01-15T07:16:07.434Z,-2.20
2018-01-15T07:17:09.907Z,-2.20
2018-01-15T07:18:12.385Z,-2.20
2018-01-15T07:19:15.645Z,-2.20
2018-01-15T07:20:18.112Z,-2.20
2018-01-15T07:21:20.569Z,-2.20
2018-01-15T07:22:23.802Z,-2.20
2018-01-15T07:23:27.030Z,-2.20
2018-01-15T07:24:29.518Z,-2.20
2018-01-15T07:25:31.985Z,-2.20
2018-01-15T07:26:34.448Z,-2.20
2018-01-15T07:27:36.915Z,-2.20
2018-01-15T07:28:39.374Z,-2.20
2018-01-15T07:29:42.645Z,-2.20
2018-01-15T07:30:45.112Z,-2.20
2018-01-15T07:31:47.566Z,-2.20
2018-01-15T07:32:50.835Z,-2.20
2018-01-15T07:33:53.374Z,-2.20
2018-01-15T07:34:55.867Z,-2.20
2018-01-15T07:35:59.106Z,-2.20
2018-01-15T07:37:02.364Z,-2.20
2018-01-15T07:38:05.590Z,-2.20
2018-01-15T07:39:08.856Z,-2.20
2018-01-15T07:40:11.320Z,-2.20
2018-01-15T07:41:13.798Z,-2.10
2018-01-15T07:42:17.066Z,-2.10
2018-01-15T07:43:19.529Z,-2.20
2018-01-15T07:44:21.997Z,-2.10
2018-01-15T07:45:24.458Z,-2.10
2018-01-15T07:46:27.167Z,-2.10
2018-01-15T07:47:29.650Z,-2.10
2018-01-15T07:48:32.886Z,-2.10
2018-01-15T07:49:35.346Z,-2.10
2018-01-15T07:50:37.813Z,-2.10
2018-01-15T07:51:40.294Z,-2.10
2018-01-15T07:52:42.817Z,-2.10
2018-01-15T07:53:46.067Z,-2.10
2018-01-15T07:54:48.602Z,-2.10
2018-01-15T07:55:51.094Z,-2.10
2018-01-15T07:56:54.326Z,-2.10
2018-01-15T07:57:56.797Z,-2.10
2018-01-15T07:58:59.278Z,-2.10
2018-01-15T08:00:01.733Z,-2.10
2018-01-15T08:01:04.243Z,-2.10
2018-01-15T08:02:07.501Z,-2.00
2018-01-15T08:03:10.003Z,-2.00
2018-01-15T08:04:12.445Z,-2.00
2018-01-15T08:05:14.914Z,-2.00
2018-01-15T08:06:17.490Z,-2.00
2018-01-15T08:07:20.714Z,-1.90
2018-01-15T08:08:23.954Z,-1.90
2018-01-15T08:09:27.211Z,-1.90
2018-01-15T08:10:30.447Z,-1.90
2018-01-15T08:11:33.689Z,-1.90
2018-01-15T08:12:36.998Z,-1.90
2018-01-15T08:13:39.494Z,-1.90
2018-01-15T08:14:41.967Z,-1.80
2018-01-15T08:15:45.242Z,-1.70
2018-01-15T08:16:48.130Z,-1.70
2018-01-15T08:17:50.605Z,-1.70
2018-01-15T08:18:53.082Z,-1.70
2018-01-15T08:19:55.546Z,-1.60
2018-01-15T08:20:58.805Z,-1.60
2018-01-15T08:22:01.266Z,-1.60
2018-01-15T08:23:03.855Z,-1.70
2018-01-15T08:24:06.326Z,-1.70
2018-01-15T08:25:08.798Z,-1.60
2018-01-15T08:26:11.261Z,-1.60
2018-01-15T08:27:14.622Z,-1.70
2018-01-15T08:28:17.905Z,-1.70
2018-01-15T08:29:21.152Z,-1.70
2018-01-15T08:30:23.681Z,-1.70
2018-01-15T08:31:26.358Z,-1.60
2018-01-15T08:32:28.811Z,-1.60
2018-01-15T08:33:32.198Z,-1.60
2018-01-15T08:34:34.662Z,-1.60
2018-01-15T08:35:37.126Z,-1.60
2018-01-15T08:36:39.590Z,-1.60
2018-01-15T08:37:42.054Z,-1.50
2018-01-15T08:38:45.298Z,-1.60
2018-01-15T08:39:48.553Z,-1.60
2018-01-15T08:40:51.025Z,-1.60
2018-01-15T08:41:53.477Z,-1.50
2018-01-15T08:42:55.946Z,-1.50
2018-01-15T08:43:58.508Z,-1.40
2018-01-15T08:45:00.986Z,-1.40
2018-01-15T08:46:03.469Z,-1.30
2018-01-15T08:47:06.730Z,-1.00
2018-01-15T08:48:09.958Z,-0.80
2018-01-15T08:49:12.432Z,-0.80
2018-01-15T08:50:14.926Z,-0.50
2018-01-15T08:51:18.144Z,0.10
2018-01-15T08:52:20.637Z,0.10
2018-01-15T08:53:23.184Z,0.40
2018-01-15T08:54:25.802Z,0.70
2018-01-15T08:55:28.281Z,0.90
2018-01-15T08:56:31.628Z,1.10
2018-01-15T08:57:34.865Z,1.20
2018-01-15T08:58:38.166Z,1.30
2018-01-15T08:59:40.648Z,1.30
2018-01-15T09:00:43.177Z,1.40
2018-01-15T09:01:45.646Z,1.50
2018-01-15T09:02:48.119Z,1.70
2018-01-15T09:03:51.350Z,1.90
2018-01-15T09:04:54.606Z,1.80
2018-01-15T09:05:57.633Z,1.80
2018-01-15T09:07:00.854Z,1.60
2018-01-15T09:08:03.309Z,1.50
2018-01-15T09:09:05.841Z,1.40
2018-01-15T09:10:08.357Z,1.20
2018-01-15T09:11:10.894Z,1.10
2018-01-15T09:12:13.357Z,0.90
2018-01-15T09:13:15.940Z,0.80
2018-01-15T09:14:18.402Z,0.60
2018-01-15T09:15:20.908Z,0.50
2018-01-15T09:16:23.427Z,0.50
2018-01-15T09:17:25.893Z,0.40
2018-01-15T09:18:28.361Z,0.40
2018-01-15T09:19:32.006Z,0.30
2018-01-15T09:20:35.266Z,0.30
2018-01-15T09:21:37.776Z,0.20
2018-01-15T09:22:40.316Z,0.20
2018-01-15T09:23:42.834Z,0.20
2018-01-15T09:24:46.065Z,0.20
2018-01-15T09:25:49.422Z,0.20
2018-01-15T09:26:51.945Z,0.20
2018-01-15T09:27:54.406Z,0.20
2018-01-15T09:28:56.867Z,0.20
2018-01-15T09:29:59.420Z,0.20
2018-01-15T09:31:01.901Z,0.20
2018-01-15T09:32:04.362Z,0.20
2018-01-15T09:33:07.609Z,0.30
2018-01-15T09:34:10.829Z,0.30
2018-01-15T09:35:13.298Z,0.30
2018-01-15T09:36:15.761Z,0.30
2018-01-15T09:37:19.737Z,0.30
2018-01-15T09:38:23.054Z,0.30
2018-01-15T09:39:25.558Z,0.30
2018-01-15T09:40:28.040Z,0.40
2018-01-15T09:41:31.263Z,0.40
2018-01-15T09:42:33.737Z,0.40
2018-01-15T09:43:36.242Z,0.40
2018-01-15T09:44:39.510Z,0.50
2018-01-15T09:45:42.013Z,0.50
2018-01-15T09:46:45.237Z,0.50
2018-01-15T09:47:48.462Z,0.50
2018-01-15T09:48:50.933Z,0.50
2018-01-15T09:49:53.442Z,0.50
2018-01-15T09:50:56.674Z,0.50
2018-01-15T09:51:59.897Z,0.50
2018-01-15T09:53:02.374Z,0.50
2018-01-15T09:54:05.597Z,0.50
2018-01-15T09:55:08.868Z,0.60
2018-01-15T09:56:11.366Z,0.60
2018-01-15T09:57:13.826Z,0.60
2018-01-15T09:58:16.286Z,0.60
2018-01-15T09:59:18.743Z,0.70
2018-01-15T10:00:21.222Z,0.70
2018-01-15T10:01:23.813Z,0.70
2018-01-15T10:02:26.274Z,0.70
2018-01-15T10:03:28.729Z,0.80
2018-01-15T10:04:31.966Z,0.80
2018-01-15T10:05:35.195Z,0.80
2018-01-15T10:06:37.674Z,0.80
2018-01-15T10:07:40.145Z,0.80
2018-01-15T10:08:42.636Z,0.80
2018-01-15T10:09:45.077Z,0.80
2018-01-15T10:10:47.799Z,0.80
2018-01-15T10:11:50.248Z,0.90
2018-01-15T10:12:52.706Z,0.90
2018-01-15T10:13:55.153Z,0.90
2018-01-15T10:14:57.635Z,0.90
2018-01-15T10:16:00.880Z,1.00
2018-01-15T10:17:04.161Z,1.00
2018-01-15T10:18:06.564Z,1.00
2018-01-15T10:19:09.029Z,1.00
2018-01-15T10:20:11.515Z,1.10
2018-01-15T10:21:13.989Z,1.10
2018-01-15T10:22:16.563Z,1.10
2018-01-15T10:23:19.781Z,1.10
2018-01-15T10:24:23.010Z,1.10
2018-01-15T10:25:25.493Z,1.10
2018-01-15T10:26:27.981Z,1.10
2018-01-15T10:27:31.236Z,1.20
2018-01-15T10:28:35.265Z,1.20
2018-01-15T10:29:37.725Z,1.20
2018-01-15T10:30:40.182Z,1.20
2018-01-15T10:31:42.661Z,1.20
2018-01-15T10:32:46.494Z,1.30
2018-01-15T10:33:48.953Z,1.30
2018-01-15T10:34:52.209Z,1.30
2018-01-15T10:35:55.504Z,1.30
2018-01-15T10:36:57.963Z,1.30
2018-01-15T10:38:00.477Z,1.40
2018-01-15T10:39:03.709Z,1.40
2018-01-15T10:40:06.931Z,1.40
2018-01-15T10:41:09.407Z,1.40
2018-01-15T10:42:11.929Z,1.50
2018-01-15T10:43:14.380Z,1.50
2018-01-15T10:44:16.867Z,1.50
2018-01-15T10:45:20.095Z,1.50
2018-01-15T10:46:23.502Z,1.60
2018-01-15T10:47:25.987Z,1.60
2018-01-15T10:48:29.210Z,1.60
2018-01-15T10:49:32.467Z,1.60
2018-01-15T10:50:34.926Z,1.60
2018-01-15T10:51:37.408Z,1.60
2018-01-15T10:52:40.637Z,1.70
2018-01-15T10:53:43.897Z,1.70
2018-01-15T10:54:47.118Z,1.70
2018-01-15T10:55:49.578Z,1.70
2018-01-15T10:56:52.100Z,1.80
2018-01-15T10:57:55.295Z,1.80
2018-01-15T10:58:57.745Z,1.80
2018-01-15T11:00:00.983Z,1.80
2018-01-15T11:01:09.957Z,1.90
2018-01-15T11:02:13.324Z,1.90
2018-01-15T11:03:15.782Z,1.90
2018-01-15T11:04:18.470Z,1.90
2018-01-15T11:05:21.716Z,1.90
2018-01-15T11:06:24.183Z,1.90
2018-01-15T11:07:26.669Z,2.00
2018-01-15T11:08:29.198Z,2.00
2018-01-15T11:09:31.690Z,2.00
2018-01-15T11:10:34.145Z,2.00
2018-01-15T11:11:36.611Z,2.10
2018-01-15T11:12:39.071Z,2.10
2018-01-15T11:13:42.837Z,2.10
2018-01-15T11:14:46.086Z,2.10
2018-01-15T11:15:49.296Z,2.10
2018-01-15T11:16:51.846Z,2.10
2018-01-15T11:17:55.067Z,2.10
2018-01-15T11:18:57.525Z,2.10
2018-01-15T11:20:00.061Z,2.10
2018-01-15T11:21:02.538Z,2.10
2018-01-15T11:22:04.986Z,2.20
2018-01-15T11:23:08.348Z,2.10
2018-01-15T11:24:10.801Z,2.10
2018-01-15T11:25:13.274Z,2.20
2018-01-15T11:26:16.661Z,2.20
2018-01-15T11:27:19.172Z,2.20
2018-01-15T11:28:21.621Z,2.20
2018-01-15T11:29:24.214Z,2.20
2018-01-15T11:30:27.461Z,2.30
2018-01-15T11:31:30.689Z,2.30
2018-01-15T11:32:33.918Z,2.30
2018-01-15T11:33:37.142Z,2.30
2018-01-15T11:34:39.609Z,2.30
2018-01-15T11:35:42.162Z,2.30
2018-01-15T11:36:44.657Z,2.20
2018-01-15T11:37:47.916Z,2.30
2018-01-15T11:38:50.391Z,2.30
2018-01-15T11:39:53.769Z,2.30
2018-01-15T11:40:56.237Z,2.30
2018-01-15T11:41:58.725Z,2.40
2018-01-15T11:43:01.251Z,2.40
2018-01-15T11:44:03.741Z,2.40
2018-01-15T11:45:06.210Z,2.40
2018-01-15T11:46:08.669Z,2.50
2018-01-15T11:47:11.129Z,2.50
2018-01-15T11:48:14.384Z,2.60
2018-01-15T11:49:16.846Z,2.50
2018-01-15T11:50:19.310Z,2.60
2018-01-15T11:51:21.786Z,2.60
2018-01-15T11:52:24.290Z,2.60
2018-01-15T11:53:26.786Z,2.60
2018-01-15T11:54:30.018Z,2.60
2018-01-15T11:55:32.485Z,2.60
2018-01-15T11:56:34.944Z,2.60
2018-01-15T11:57:37.468Z,2.60
2018-01-15T11:58:39.945Z,2.70
2018-01-15T11:59:43.172Z,2.70
2018-01-15T12:00:45.621Z,2.70
2018-01-15T12:01:48.086Z,2.70
2018-01-15T12:02:50.570Z,2.70
2018-01-15T12:03:53.076Z,2.80
2018-01-15T12:04:56.352Z,2.80
2018-01-15T12:05:58.836Z,2.80
2018-01-15T12:07:01.390Z,2.80
2018-01-15T12:08:03.845Z,2.80
2018-01-15T12:09:06.310Z,2.80
2018-01-15T12:10:08.869Z,2.80
2018-01-15T12:11:11.348Z,2.90
2018-01-15T12:12:13.805Z,2.90
2018-01-15T12:13:17.074Z,2.90
2018-01-15T12:14:19.521Z,2.90
2018-01-15T12:15:22.038Z,2.90
2018-01-15T12:16:24.541Z,2.90
2018-01-15T12:17:27.062Z,2.90
2018-01-15T12:18:29.509Z,2.90
2018-01-15T12:19:31.964Z,2.90
2018-01-15T12:20:34.714Z,2.90
2018-01-15T12:21:37.218Z,2.90
2018-01-15T12:22:40.471Z,3.00
2018-01-15T12:23:42.956Z,3.00
2018-01-15T12:24:45.454Z,3.00
2018-01-15T12:25:47.862Z,3.00
2018-01-15T12:26:51.102Z,3.00
2018-01-15T12:27:54.225Z,3.00
2018-01-15T12:28:56.700Z,3.00
2018-01-15T12:29:59.190Z,3.00
2018-01-15T12:31:02.471Z,3.00
2018-01-15T12:32:04.917Z,3.00
2018-01-15T12:33:07.373Z,3.00
2018-01-15T12:34:11.560Z,3.00
2018-01-15T12:35:14.819Z,3.00
2018-01-15T12:36:17.342Z,3.00
2018-01-15T12:37:19.874Z,3.00
2018-01-15T12:38:22.326Z,3.00
2018-01-15T12:39:24.788Z,3.00
2018-01-15T12:40:28.010Z,3.00
2018-01-15T12:41:30.505Z,3.00
2018-01-15T12:42:32.957Z,3.00
2018-01-15T12:43:35.433Z,3.00
2018-01-15T12:44:38.029Z,3.10
2018-01-15T12:45:40.489Z,3.10
2018-01-15T12:46:43.001Z,3.10
2018-01-15T12:47:46.222Z,3.10
2018-01-15T12:48:49.778Z,3.10
2018-01-15T12:49:53.202Z,3.20
2018-01-15T12:50:55.663Z,3.10
2018-01-15T12:51:58.882Z,3.20
2018-01-15T12:53:01.333Z,3.20
2018-01-15T12:54:03.844Z,3.20
2018-01-15T12:55:07.065Z,3.20
2018-01-15T12:56:09.525Z,3.10
2018-01-15T12:57:12.014Z,3.10
2018-01-15T12:58:14.810Z,3.20
2018-01-15T12:59:17.341Z,3.20
2018-01-15T13:00:19.806Z,3.20
2018-01-15T13:01:22.271Z,3.20
2018-01-15T13:02:24.739Z,3.20
2018-01-15T13:03:27.237Z,3.20
2018-01-15T13:04:29.687Z,3.20
2018-01-15T13:05:43.950Z,3.20
2018-01-15T13:07:01.389Z,3.20
2018-01-15T13:08:11.313Z,3.20
2018-01-15T13:09:14.669Z,3.20
2018-01-15T13:10:17.158Z,3.20
2018-01-15T13:11:20.434Z,3.20
2018-01-15T13:12:23.075Z,3.20
2018-01-15T13:13:25.541Z,3.20
2018-01-15T13:14:28.843Z,3.20
2018-01-15T13:15:31.293Z,3.20
2018-01-15T13:16:34.515Z,3.30
2018-01-15T13:17:37.004Z,3.30
2018-01-15T13:18:39.462Z,3.30
2018-01-15T13:19:41.924Z,3.40
2018-01-15T13:20:45.149Z,3.40
2018-01-15T13:21:47.706Z,3.40
2018-01-15T13:22:50.938Z,3.40
2018-01-15T13:23:54.166Z,3.40
2018-01-15T13:24:57.394Z,3.40
2018-01-15T13:25:59.845Z,3.40
2018-01-15T13:27:03.092Z,3.50
2018-01-15T13:28:06.433Z,3.50
2018-01-15T13:29:09.687Z,3.40
2018-01-15T13:30:12.146Z,3.40
2018-01-15T13:31:14.596Z,3.50
2018-01-15T13:32:17.063Z,3.40
2018-01-15T13:33:19.523Z,3.40
2018-01-15T13:34:22.012Z,3.40
2018-01-15T13:35:24.633Z,3.40
2018-01-15T13:36:27.166Z,3.40
2018-01-15T13:37:30.402Z,3.30
2018-01-15T13:38:32.885Z,3.30